Time;durP1;ratioP1;P1;durP2;ratioP2;P2;SDS_P1;SDS_P2;PMS_P1;PMS_P2;Temp;Humidity;BMP_temperature;BMP_pressure;BME280_temperature;BME280_humidity;BME280_pressure;Samples;Min_cycle;Max_cycle;Signal;HPM_P1;HPM_P2
2022/10/14 00:02:28;;;;;;;23.92;9.48;;;;;;;10.17;82.62;101275.45;1711795;84;21007;-68
2022/10/14 00:04:57;;;;;;;22.90;9.65;;;;;;;10.19;82.51;101271.17;1711718;84;21059;-69
2022/10/14 00:07:28;;;;;;;19.82;9.03;;;;;;;10.18;82.47;101268.95;1711916;84;21047;-67
2022/10/14 00:09:57;;;;;;;21.90;9.63;;;;;;;10.20;82.42;101267.91;1718814;83;21082;-71
2022/10/14 00:12:28;;;;;;;19.55;9.60;;;;;;;10.18;82.36;101265.35;1724694;83;21526;-68
2022/10/14 00:14:58;;;;;;;19.95;8.95;;;;;;;10.16;82.35;101271.52;1723292;83;21509;-69
2022/10/14 00:17:27;;;;;;;22.65;8.63;;;;;;;10.18;82.32;101263.98;1723721;83;21353;-69
2022/10/14 00:19:58;;;;;;;19.80;8.90;;;;;;;10.20;82.30;101266.55;1701617;83;21079;-69
2022/10/14 00:22:30;;;;;;;19.27;9.08;;;;;;;10.16;82.31;101265.52;1727631;83;21415;-68
2022/10/14 00:24:59;;;;;;;21.48;9.08;;;;;;;10.13;82.47;101267.76;1725950;83;21063;-71
2022/10/14 00:27:30;;;;;;;19.40;8.03;;;;;;;10.12;82.60;101274.27;1726275;83;21046;-69
2022/10/14 00:30:02;;;;;;;22.32;8.70;;;;;;;10.08;82.67;101270.16;1729025;83;21103;-68
2022/10/14 00:32:32;;;;;;;18.12;8.45;;;;;;;10.07;82.81;101269.30;1729672;83;21063;-70
2022/10/14 00:35:02;;;;;;;21.30;8.63;;;;;;;10.08;82.91;101270.16;1723164;83;21079;-68
2022/10/14 00:37:31;;;;;;;19.17;8.15;;;;;;;10.09;83.08;101263.14;1727261;83;21027;-69
2022/10/14 00:40:01;;;;;;;15.93;7.80;;;;;;;10.10;83.27;101265.37;1725583;83;21042;-67
2022/10/14 00:42:34;;;;;;;19.02;7.20;;;;;;;10.14;83.40;101263.48;1724496;82;21443;-68
2022/10/14 00:45:16;;;;;;;23.50;7.33;;;;;;;10.17;83.43;101265.02;1728851;83;21046;-69
2022/10/14 00:47:45;;;;;;;21.42;7.35;;;;;;;10.18;83.42;101257.13;1702571;83;21011;-68
2022/10/14 00:50:14;;;;;;;21.77;8.03;;;;;;;10.20;83.35;101251.48;1729148;83;21575;-69
2022/10/14 00:52:45;;;;;;;15.45;7.65;;;;;;;10.21;83.20;101254.08;1702705;83;21058;-68
2022/10/14 00:55:18;;;;;;;20.23;8.10;;;;;;;10.18;83.09;101257.13;1725160;83;21067;-71
2022/10/14 00:57:49;;;;;;;17.73;8.18;;;;;;;10.19;82.98;101252.00;1722800;83;21070;-69
2022/10/14 01:00:19;;;;;;;17.57;8.28;;;;;;;10.19;82.86;101245.15;1706358;83;21050;-69
2022/10/14 01:02:48;;;;;;;24.70;9.28;;;;;;;10.20;82.76;101252.37;1723980;83;21013;-68
2022/10/14 01:05:18;;;;;;;18.17;8.50;;;;;;;10.18;82.75;101247.03;1725223;83;21540;-68
2022/10/14 01:07:56;;;;;;;18.48;8.50;;;;;;;10.17;82.79;101249.95;1725022;83;21058;-68
2022/10/14 01:10:43;;;;;;;18.75;8.03;;;;;;;10.16;82.92;101246.87;1716824;83;21114;-69
2022/10/14 01:13:34;;;;;;;19.23;8.13;;;;;;;10.15;83.05;101243.79;1711279;83;21102;-70
2022/10/14 01:16:14;;;;;;;18.57;8.23;;;;;;;10.16;83.23;101240.02;1711693;84;21028;-72
2022/10/14 01:19:12;;;;;;;21.30;8.05;;;;;;;10.16;83.37;101244.13;1685262;84;21066;-70
2022/10/14 01:21:50;;;;;;;18.60;8.65;;;;;;;10.14;83.41;101238.83;1694949;84;21015;-70
2022/10/14 01:24:46;;;;;;;17.23;7.85;;;;;;;10.12;83.27;101234.04;1711911;84;21039;-69
2022/10/14 01:27:48;;;;;;;18.85;7.72;;;;;;;10.09;83.31;101237.13;1711814;84;20988;-68
2022/10/14 01:30:21;;;;;;;18.52;7.62;;;;;;;10.04;83.51;101234.57;1711351;84;21023;-69
2022/10/14 01:33:18;;;;;;;14.58;7.33;;;;;;;9.97;83.66;101228.94;1712037;82;21015;-70
2022/10/14 01:36:01;;;;;;;20.12;7.42;;;;;;;9.93;83.85;101233.56;1675825;84;21439;-69
2022/10/14 01:38:46;;;;;;;14.90;6.95;;;;;;;9.90;84.00;101231.17;1711565;84;21082;-70
2022/10/14 01:41:25;;;;;;;17.35;7.85;;;;;;;9.89;84.15;101240.41;1685196;84;21066;-70
2022/10/14 01:43:57;;;;;;;19.75;8.10;;;;;;;9.87;84.24;101236.99;1696522;84;21051;-69
2022/10/14 01:46:27;;;;;;;18.62;7.33;;;;;;;9.83;84.26;101233.23;1711605;84;21447;-70
2022/10/14 01:49:01;;;;;;;19.82;7.53;;;;;;;9.78;84.26;101231.53;1711517;84;21075;-69
2022/10/14 01:51:41;;;;;;;18.55;7.87;;;;;;;9.69;84.37;101225.69;1711798;84;21469;-69
2022/10/14 01:54:22;;;;;;;19.60;7.80;;;;;;;9.65;84.51;101231.16;1709920;84;21032;-68
2022/10/14 01:56:52;;;;;;;20.57;7.85;;;;;;;9.60;84.62;101234.92;1691231;84;21004;-70
2022/10/14 01:59:21;;;;;;;17.30;8.18;;;;;;;9.56;84.78;101234.06;1711996;82;21047;-70
2022/10/14 02:01:51;;;;;;;18.15;7.53;;;;;;;9.55;84.92;101237.31;1685266;84;21500;-69
2022/10/14 02:04:22;;;;;;;16.15;7.37;;;;;;;9.51;84.97;101233.21;1711696;84;21055;-69
2022/10/14 02:07:09;;;;;;;19.87;7.85;;;;;;;9.46;84.97;101232.87;1711757;84;21020;-69
2022/10/14 02:10:20;;;;;;;20.25;8.63;;;;;;;9.42;85.09;101235.59;1711484;84;20990;-68
2022/10/14 02:13:35;;;;;;;22.75;9.15;;;;;;;9.38;85.35;101222.77;1715874;83;21075;-69
2022/10/14 02:16:46;;;;;;;24.82;8.90;;;;;;;9.39;85.55;101223.63;1714151;83;21060;-69
2022/10/14 02:19:33;;;;;;;17.20;8.30;;;;;;;9.41;85.66;101231.16;1703013;83;21533;-69
2022/10/14 02:22:41;;;;;;;21.50;8.60;;;;;;;9.37;85.58;101228.41;1714481;83;21047;-70
2022/10/14 02:25:23;;;;;;;21.05;9.48;;;;;;;9.31;85.66;101224.99;1700896;83;21861;-67
2022/10/14 02:27:52;;;;;;;18.87;9.35;;;;;;;9.26;85.87;101226.02;1714785;83;21046;-69
2022/10/14 02:30:22;;;;;;;23.38;9.58;;;;;;;9.22;86.04;101226.86;1714995;83;21036;-68
2022/10/14 02:32:53;;;;;;;22.22;9.38;;;;;;;9.19;86.09;101230.79;1714850;83;21051;-68
2022/10/14 02:35:25;;;;;;;23.02;10.03;;;;;;;9.18;86.24;101228.23;1716042;83;21075;-70
2022/10/14 02:37:56;;;;;;;22.15;10.28;;;;;;;9.18;86.38;101226.86;1715746;83;21059;-68
2022/10/14 02:40:36;;;;;;;21.93;10.70;;;;;;;9.18;86.49;101228.23;1713692;83;21436;-67
2022/10/14 02:43:08;;;;;;;23.60;10.35;;;;;;;9.15;86.63;101232.16;1699456;83;21086;-70
2022/10/14 02:45:38;;;;;;;23.50;10.82;;;;;;;9.15;86.71;101232.16;1716030;83;21038;-69
2022/10/14 02:48:09;;;;;;;22.87;10.35;;;;;;;9.17;86.78;101229.25;1716130;83;21090;-69
2022/10/14 02:50:39;;;;;;;19.92;9.80;;;;;;;9.16;86.80;101229.77;1719178;83;21070;-68
2022/10/14 02:53:09;;;;;;;25.15;10.80;;;;;;;9.17;86.93;101234.20;1697262;83;21074;-70
2022/10/14 02:55:41;;;;;;;22.80;10.72;;;;;;;9.16;86.96;101228.39;1715922;82;21525;-67
2022/10/14 02:58:10;;;;;;;23.60;10.88;;;;;;;9.17;87.03;101234.20;1698086;83;21079;-69
2022/10/14 03:00:42;;;;;;;22.25;10.78;;;;;;;9.18;87.06;101233.18;1714722;82;21512;-68
2022/10/14 03:03:14;;;;;;;21.23;11.50;;;;;;;9.16;87.12;101237.96;1696843;83;21066;-69
2022/10/14 03:05:43;;;;;;;23.57;10.43;;;;;;;9.15;87.23;101237.62;1713112;83;21040;-70
2022/10/14 03:08:16;;;;;;;28.30;10.82;;;;;;;9.14;87.33;101235.05;1700495;83;21015;-69
2022/10/14 03:10:46;;;;;;;23.25;11.05;;;;;;;9.09;87.50;101231.42;1709046;83;21483;-69
2022/10/14 03:13:18;;;;;;;25.85;11.20;;;;;;;9.07;87.68;101227.14;1688478;84;21623;-69
2022/10/14 03:15:49;;;;;;;27.35;11.20;;;;;;;9.05;87.89;101231.92;1710889;83;21020;-70
2022/10/14 03:18:20;;;;;;;26.90;11.93;;;;;;;9.04;88.12;101229.70;1701700;84;21055;-68
2022/10/14 03:20:51;;;;;;;24.35;10.95;;;;;;;9.07;88.29;101226.63;1705901;84;20981;-70
2022/10/14 03:23:22;;;;;;;26.12;11.22;;;;;;;9.11;88.44;101225.81;1705338;84;21052;-71
2022/10/14 03:25:54;;;;;;;26.60;10.70;;;;;;;9.11;88.39;101225.30;1702069;84;21455;-69
2022/10/14 03:28:26;;;;;;;20.88;10.65;;;;;;;9.12;88.46;101227.53;1705483;84;21048;-70
2022/10/14 03:31:01;;;;;;;24.23;10.95;;;;;;;9.11;88.41;101223.94;1705841;84;21068;-67
2022/10/14 03:33:33;;;;;;;25.62;10.88;;;;;;;9.10;88.38;101228.17;1710205;84;21120;-69
2022/10/14 03:36:11;;;;;;;24.05;10.40;;;;;;;9.09;88.38;101223.22;1710788;84;21400;-67
2022/10/14 03:38:48;;;;;;;27.73;11.70;;;;;;;9.09;88.42;101229.20;1702137;84;21012;-68
2022/10/14 03:41:20;;;;;;;26.37;12.20;;;;;;;9.08;88.46;101226.13;1699767;84;21118;-68
2022/10/14 03:43:50;;;;;;;26.50;11.50;;;;;;;9.11;88.49;101232.14;1709284;84;21040;-68
2022/10/14 03:46:20;;;;;;;27.80;11.73;;;;;;;9.12;88.42;101224.28;1702438;84;21000;-68
2022/10/14 03:48:51;;;;;;;28.30;11.95;;;;;;;9.13;88.42;101227.36;1702705;84;21059;-67
2022/10/14 03:51:22;;;;;;;23.90;12.40;;;;;;;9.14;88.40;101227.70;1710564;84;21091;-68
2022/10/14 03:53:52;;;;;;;26.55;12.58;;;;;;;9.13;88.35;101219.16;1708393;84;21032;-71
2022/10/14 03:56:24;;;;;;;25.75;12.90;;;;;;;9.12;88.37;101228.39;1710750;84;21044;-67
2022/10/14 03:58:53;;;;;;;26.05;12.90;;;;;;;9.11;88.37;101229.92;1707478;84;21095;-70
2022/10/14 04:01:23;;;;;;;27.25;13.25;;;;;;;9.07;88.36;101232.10;1680538;84;21056;-68
2022/10/14 04:03:57;;;;;;;28.87;14.15;;;;;;;9.05;88.42;101230.56;1693589;84;20992;-69
2022/10/14 04:06:30;;;;;;;26.17;13.08;;;;;;;9.02;88.48;101232.27;1707052;84;21039;-69
2022/10/14 04:09:01;;;;;;;25.27;12.80;;;;;;;9.01;88.59;101230.55;1704527;84;21040;-68
2022/10/14 04:11:33;;;;;;;26.05;12.82;;;;;;;9.00;88.59;101222.00;1715957;83;21047;-68
2022/10/14 04:14:03;;;;;;;30.00;12.60;;;;;;;8.97;88.71;101225.07;1724884;83;21023;-67
2022/10/14 04:16:35;;;;;;;26.48;14.03;;;;;;;8.95;88.78;101230.70;1724685;83;20995;-70
2022/10/14 04:19:10;;;;;;;27.55;12.82;;;;;;;8.92;88.83;101224.21;1724826;83;21082;-68
2022/10/14 04:21:41;;;;;;;25.72;11.80;;;;;;;8.90;88.92;101235.81;1705756;83;21098;-71
2022/10/14 04:24:11;;;;;;;23.18;12.05;;;;;;;8.89;89.00;101235.47;1727267;81;21050;-68
2022/10/14 04:26:44;;;;;;;30.77;12.50;;;;;;;8.89;89.02;101232.23;1729434;82;21047;-69
2022/10/14 04:29:16;;;;;;;26.95;13.05;;;;;;;8.89;89.12;101232.73;1724721;83;21063;-68
2022/10/14 04:31:57;;;;;;;26.12;12.78;;;;;;;8.89;89.10;101230.01;1710946;83;21027;-68
2022/10/14 04:34:27;;;;;;;33.23;15.50;;;;;;;8.89;89.15;101234.96;1725447;83;21066;-69
2022/10/14 04:36:57;;;;;;;35.83;14.65;;;;;;;8.91;89.19;101229.33;1724546;83;21003;-68
2022/10/14 04:39:33;;;;;;;30.02;13.93;;;;;;;8.91;89.24;101230.70;1723117;83;21044;-69
2022/10/14 04:42:03;;;;;;;29.42;14.83;;;;;;;8.91;89.31;101229.33;1724442;83;21430;-67
2022/10/14 04:44:35;;;;;;;27.30;13.22;;;;;;;8.95;89.36;101234.81;1725063;83;21500;-69
2022/10/14 04:47:06;;;;;;;33.10;13.03;;;;;;;8.98;89.29;101235.84;1727316;83;21475;-71
2022/10/14 04:49:36;;;;;;;27.40;12.73;;;;;;;9.01;89.21;101231.41;1725623;83;21062;-67
2022/10/14 04:52:11;;;;;;;26.55;13.40;;;;;;;9.04;89.28;101232.95;1721781;82;21474;-68
2022/10/14 04:54:42;;;;;;;33.23;14.50;;;;;;;9.03;89.23;101240.30;1724796;83;21011;-68
2022/10/14 04:57:12;;;;;;;30.92;13.72;;;;;;;9.02;89.27;101239.95;1726480;83;21042;-65
2022/10/14 04:59:42;;;;;;;40.60;14.55;;;;;;;9.04;89.34;101230.22;1726346;83;21404;-68
2022/10/14 05:02:14;;;;;;;26.93;14.75;;;;;;;9.05;89.36;101231.92;1715024;83;21110;-68
2022/10/14 05:04:46;;;;;;;27.40;13.90;;;;;;;9.08;89.43;101235.18;1727961;83;21051;-69
2022/10/14 05:07:16;;;;;;;22.93;12.25;;;;;;;9.11;89.40;101229.92;1724389;82;21456;-68
2022/10/14 05:09:48;;;;;;;25.77;12.55;;;;;;;9.11;89.47;101238.98;1726227;83;21070;-70
2022/10/14 05:12:22;;;;;;;25.60;13.05;;;;;;;9.13;89.51;101242.40;1726077;83;21031;-68
2022/10/14 05:14:56;;;;;;;28.40;12.40;;;;;;;9.15;89.51;101244.97;1722409;83;21114;-70
2022/10/14 05:17:27;;;;;;;29.18;14.78;;;;;;;9.16;89.61;101239.33;1727102;82;21428;-68
2022/10/14 05:19:57;;;;;;;30.43;14.90;;;;;;;9.21;89.71;101244.30;1698651;83;21442;-70
2022/10/14 05:22:27;;;;;;;29.80;13.68;;;;;;;9.23;89.75;101244.13;1729377;83;21050;-67
2022/10/14 05:24:57;;;;;;;26.75;13.88;;;;;;;9.26;89.83;101246.02;1726254;83;21122;-70
2022/10/14 05:27:27;;;;;;;26.90;14.45;;;;;;;9.31;89.82;101237.30;1729257;83;21011;-70
2022/10/14 05:29:56;;;;;;;31.60;14.70;;;;;;;9.35;89.76;101240.89;1723787;83;21019;-70
2022/10/14 05:32:27;;;;;;;33.35;15.18;;;;;;;9.37;89.81;101253.03;1726922;83;21019;-68
2022/10/14 05:34:59;;;;;;;30.80;14.70;;;;;;;9.37;89.92;101248.93;1722334;82;20988;-69
2022/10/14 05:37:30;;;;;;;30.23;13.95;;;;;;;9.42;90.06;101256.97;1725849;82;21070;-68
2022/10/14 05:40:00;;;;;;;32.80;14.68;;;;;;;9.46;90.16;101255.61;1723129;83;21082;-69
2022/10/14 05:42:30;;;;;;;27.22;14.60;;;;;;;9.51;90.18;101257.83;1726932;83;21071;-69
2022/10/14 05:45:01;;;;;;;29.98;14.60;;;;;;;9.53;90.21;101258.52;1722867;83;20995;-69
2022/10/14 05:47:31;;;;;;;28.67;14.80;;;;;;;9.54;90.30;101263.81;1727163;83;21713;-68
2022/10/14 05:50:05;;;;;;;24.82;13.38;;;;;;;9.57;90.44;101258.52;1725880;83;21495;-70
2022/10/14 05:52:38;;;;;;;33.05;15.28;;;;;;;9.63;90.58;101264.67;1724045;83;21047;-70
2022/10/14 05:55:09;;;;;;;30.32;15.20;;;;;;;9.67;90.64;101256.47;1724175;83;21106;-70
2022/10/14 05:57:42;;;;;;;30.55;15.45;;;;;;;9.69;90.79;101262.62;1727732;83;21046;-71
2022/10/14 06:00:16;;;;;;;33.13;15.85;;;;;;;9.73;90.88;101263.14;1727856;83;21483;-70
2022/10/14 06:02:49;;;;;;;29.80;15.65;;;;;;;9.77;90.96;101270.02;1724970;83;21066;-70
2022/10/14 06:05:18;;;;;;;38.78;16.93;;;;;;;9.81;90.98;101272.23;1709531;83;21109;-71
2022/10/14 06:07:48;;;;;;;40.12;17.10;;;;;;;9.85;90.97;101265.39;1729580;83;21030;-69
2022/10/14 06:10:19;;;;;;;41.08;18.50;;;;;;;9.90;90.98;101266.76;1704905;83;21431;-70
2022/10/14 06:12:50;;;;;;;40.67;18.85;;;;;;;9.93;90.98;101270.01;1712176;83;21114;-69
2022/10/14 06:15:19;;;;;;;46.33;19.05;;;;;;;9.96;90.95;101270.17;1702045;84;20985;-71
2022/10/14 06:17:49;;;;;;;41.48;18.40;;;;;;;9.97;90.88;101272.73;1702973;84;21067;-70
2022/10/14 06:20:20;;;;;;;36.05;16.32;;;;;;;10.01;90.78;101273.25;1682184;83;21012;-70
2022/10/14 06:22:49;;;;;;;30.37;15.15;;;;;;;10.03;90.64;101273.94;1683944;85;21046;-70
2022/10/14 06:25:19;;;;;;;33.15;14.83;;;;;;;10.07;90.39;101282.14;1704105;84;21083;-72
2022/10/14 06:27:49;;;;;;;35.43;14.85;;;;;;;10.12;89.99;101283.34;1704925;84;21021;-71
2022/10/14 06:30:24;;;;;;;34.58;14.93;;;;;;;10.15;89.53;101285.73;1707676;83;21079;-70
2022/10/14 06:32:54;;;;;;;29.65;13.40;;;;;;;10.20;89.17;101283.87;1705014;84;21016;-70
2022/10/14 06:35:24;;;;;;;34.30;14.60;;;;;;;10.25;88.63;101285.56;1706870;84;21087;-69
2022/10/14 06:37:53;;;;;;;30.32;13.70;;;;;;;10.28;88.02;101285.73;1702566;84;21119;-70
2022/10/14 06:40:23;;;;;;;28.92;13.45;;;;;;;10.31;87.39;101284.87;1703025;82;21020;-69
2022/10/14 06:42:54;;;;;;;29.85;12.68;;;;;;;10.33;86.57;101281.44;1706421;84;21293;-70
2022/10/14 06:45:23;;;;;;;35.03;12.85;;;;;;;10.34;85.70;101283.16;1703502;84;21114;-69
2022/10/14 06:47:54;;;;;;;28.90;11.65;;;;;;;10.34;85.02;101283.67;1702400;83;21027;-69
2022/10/14 06:50:25;;;;;;;26.85;11.40;;;;;;;10.35;84.52;101290.34;1699384;84;21090;-69
2022/10/14 06:52:54;;;;;;;32.23;11.83;;;;;;;10.37;84.09;101286.91;1702905;83;21048;-71
2022/10/14 06:55:23;;;;;;;27.58;11.12;;;;;;;10.39;83.56;101285.38;1703251;84;21083;-71
2022/10/14 06:57:54;;;;;;;26.68;11.12;;;;;;;10.39;83.08;101284.86;1705873;84;21099;-70
2022/10/14 07:00:24;;;;;;;26.52;10.65;;;;;;;10.42;82.78;101287.79;1703958;83;21083;-69
2022/10/14 07:02:53;;;;;;;29.52;10.80;;;;;;;10.45;82.48;101286.92;1703216;84;21028;-70
2022/10/14 07:05:24;;;;;;;26.75;10.93;;;;;;;10.50;82.19;101285.55;1698991;84;21513;-70
2022/10/14 07:07:53;;;;;;;24.85;10.88;;;;;;;10.53;81.89;101287.42;1702946;83;21095;-70
2022/10/14 07:10:24;;;;;;;26.35;10.63;;;;;;;10.58;81.52;101286.89;1652088;86;21523;-70
2022/10/14 07:12:56;;;;;;;25.08;10.58;;;;;;;10.62;81.26;101286.88;1645199;86;21091;-68
2022/10/14 07:15:27;;;;;;;25.92;10.35;;;;;;;10.65;80.78;101290.64;1649646;87;21067;-68
2022/10/14 07:17:59;;;;;;;25.48;10.93;;;;;;;10.67;80.60;101288.57;1643476;87;21131;-68
2022/10/14 07:20:30;;;;;;;22.67;9.90;;;;;;;10.69;80.29;101287.36;1649449;87;21043;-70
2022/10/14 07:22:59;;;;;;;23.30;10.05;;;;;;;10.73;80.19;101282.38;1642429;87;21476;-69
2022/10/14 07:25:29;;;;;;;25.95;9.70;;;;;;;10.78;79.93;101271.73;1645143;87;21511;-69
2022/10/14 07:28:00;;;;;;;26.42;10.88;;;;;;;10.82;79.41;101278.58;1662715;84;21044;-68
2022/10/14 07:30:29;;;;;;;31.45;15.23;;;;;;;10.87;79.22;101276.15;1706874;84;21035;-69
2022/10/14 07:33:00;;;;;;;27.40;13.05;;;;;;;10.94;79.00;101277.14;1706301;84;21482;-67
2022/10/14 07:35:34;;;;;;;22.67;8.58;;;;;;;11.00;78.74;101279.17;1705858;84;21091;-69
2022/10/14 07:38:03;;;;;;;18.87;8.73;;;;;;;11.04;78.20;101273.67;1702105;84;21060;-70
2022/10/14 07:40:33;;;;;;;20.95;7.85;;;;;;;11.06;77.78;101274.37;1710032;84;21483;-68
2022/10/14 07:43:04;;;;;;;16.97;7.37;;;;;;;11.10;77.48;101275.72;1704378;84;21471;-67
2022/10/14 07:45:35;;;;;;;19.20;8.28;;;;;;;11.16;77.17;101281.01;1711021;84;21039;-68
2022/10/14 07:48:04;;;;;;;18.70;8.10;;;;;;;11.23;76.94;101280.63;1704485;84;21094;-68
2022/10/14 07:50:34;;;;;;;18.35;8.30;;;;;;;11.30;76.69;101278.86;1705804;84;21467;-68
2022/10/14 07:53:04;;;;;;;27.70;8.00;;;;;;;11.36;76.54;101268.53;1702067;83;20982;-69
2022/10/14 07:55:33;;;;;;;18.57;7.72;;;;;;;11.44;76.14;101277.23;1701715;84;21488;-70
2022/10/14 07:58:04;;;;;;;21.55;8.80;;;;;;;11.49;75.91;101276.69;1702047;84;21044;-70
2022/10/14 08:00:35;;;;;;;18.12;7.72;;;;;;;11.55;75.89;101278.70;1706614;84;21590;-69
2022/10/14 08:03:04;;;;;;;19.25;8.65;;;;;;;11.63;75.69;101280.86;1685323;84;20996;-67
2022/10/14 08:05:34;;;;;;;21.50;8.68;;;;;;;11.72;75.63;101268.81;1705555;84;21446;-67
2022/10/14 08:08:11;;;;;;;22.07;7.85;;;;;;;11.82;75.37;101269.97;1706779;84;21015;-67
2022/10/14 08:10:42;;;;;;;18.82;8.00;;;;;;;11.91;74.97;101266.63;1709650;84;21091;-67
2022/10/14 08:13:17;;;;;;;18.75;8.58;;;;;;;12.00;74.71;101273.23;1703398;84;21104;-67
2022/10/14 08:15:48;;;;;;;19.23;8.05;;;;;;;12.12;74.44;101271.41;1702785;84;21060;-67
2022/10/14 08:18:18;;;;;;;16.75;7.22;;;;;;;12.19;73.96;101262.75;1701764;84;21456;-67
2022/10/14 08:20:48;;;;;;;15.23;7.05;;;;;;;12.26;73.58;101265.94;1704001;84;21092;-65
2022/10/14 08:23:18;;;;;;;20.17;7.45;;;;;;;12.31;73.00;101264.00;1702973;84;21079;-65
2022/10/14 08:25:49;;;;;;;18.52;7.70;;;;;;;12.33;72.47;101255.90;1701835;83;21098;-65
2022/10/14 08:28:19;;;;;;;15.40;8.13;;;;;;;12.34;72.34;101255.38;1701199;84;21063;-69
2022/10/14 08:30:48;;;;;;;17.40;7.53;;;;;;;12.38;72.08;101264.98;1703863;84;21063;-69
2022/10/14 08:33:18;;;;;;;20.92;7.20;;;;;;;12.40;71.87;101266.17;1703990;83;21067;-66
2022/10/14 08:35:49;;;;;;;11.75;6.22;;;;;;;12.42;71.78;101262.72;1704536;84;21045;-68
2022/10/14 08:38:24;;;;;;;19.23;7.08;;;;;;;12.48;71.53;101266.08;1683977;84;21068;-67
2022/10/14 08:41:22;;;;;;;10.80;5.17;;;;;;;12.50;71.07;101257.98;1702780;84;21152;-67
2022/10/14 08:44:15;;;;;;;14.73;5.30;;;;;;;12.52;70.97;101260.53;1692359;84;21076;-67
2022/10/14 08:46:59;;;;;;;16.37;5.45;;;;;;;12.56;70.65;101260.48;1629474;86;21067;-69
2022/10/14 08:49:55;;;;;;;12.58;4.83;;;;;;;12.60;70.22;101255.80;1684587;84;21061;-69
2022/10/14 08:52:50;;;;;;;15.45;5.58;;;;;;;12.70;69.84;101255.50;1699862;84;21012;-67
2022/10/14 08:55:36;;;;;;;14.00;4.67;;;;;;;12.78;69.38;101253.17;1702630;84;21016;-68
2022/10/14 08:58:30;;;;;;;11.83;4.60;;;;;;;12.83;68.81;101254.83;1698711;84;21063;-68
2022/10/14 09:01:26;;;;;;;11.35;4.40;;;;;;;12.84;68.64;101247.76;1691434;84;21095;-67
2022/10/14 09:04:03;;;;;;;12.75;4.70;;;;;;;12.86;68.34;101255.82;1704427;84;21087;-67
2022/10/14 09:06:36;;;;;;;11.25;3.90;;;;;;;12.89;68.16;101254.91;1702057;84;21100;-66
2022/10/14 09:09:10;;;;;;;10.65;4.55;;;;;;;12.96;67.81;101253.09;1698884;84;21004;-67
2022/10/14 09:11:41;;;;;;;11.18;4.10;;;;;;;13.05;67.42;101255.77;1702990;84;21509;-68
2022/10/14 09:14:17;;;;;;;10.55;3.77;;;;;;;13.10;66.79;101256.89;1699344;84;21052;-68
2022/10/14 09:16:51;;;;;;;12.75;3.85;;;;;;;13.12;66.49;101253.95;1701587;82;21006;-67
2022/10/14 09:19:32;;;;;;;13.93;4.17;;;;;;;13.14;66.37;101258.73;1699688;84;21459;-69
2022/10/14 09:22:02;;;;;;;9.78;3.65;;;;;;;13.18;66.10;101249.94;1702628;84;21067;-68
2022/10/14 09:24:37;;;;;;;11.53;3.72;;;;;;;13.24;65.62;101249.68;1702745;84;21020;-68
2022/10/14 09:27:20;;;;;;;7.97;3.90;;;;;;;13.25;65.17;101252.23;1696340;84;21067;-68
2022/10/14 09:30:02;;;;;;;25.05;15.93;;;;;;;13.24;65.08;101257.41;1686277;84;21068;-68
2022/10/14 09:32:42;;;;;;;12.13;4.47;;;;;;;13.25;64.89;101259.64;1698726;84;21071;-68
2022/10/14 09:35:24;;;;;;;7.40;4.20;;;;;;;13.26;64.40;101255.84;1698881;84;21004;-68
2022/10/14 09:37:54;;;;;;;7.58;3.15;;;;;;;13.23;64.27;101246.08;1686701;84;21017;-68
2022/10/14 09:40:33;;;;;;;7.25;3.20;;;;;;;13.24;64.23;101245.55;1706659;84;21036;-71
2022/10/14 09:43:18;;;;;;;6.78;2.80;;;;;;;13.24;63.68;101244.17;1702295;83;21366;-69
2022/10/14 09:45:58;;;;;;;10.55;3.45;;;;;;;13.23;63.13;101241.09;1702227;82;21037;-68
2022/10/14 09:48:46;;;;;;;9.70;3.35;;;;;;;13.19;63.16;101239.78;1698979;83;21420;-70
2022/10/14 09:51:26;;;;;;;8.80;2.92;;;;;;;13.22;63.29;101236.63;1706774;84;21107;-69
2022/10/14 09:53:58;;;;;;;8.30;2.90;;;;;;;13.27;63.02;101235.53;1690508;84;21467;-68
2022/10/14 09:56:36;;;;;;;14.65;5.78;;;;;;;13.27;62.97;101237.75;1699875;84;22004;-72
2022/10/14 09:59:21;;;;;;;16.07;6.65;;;;;;;13.28;62.82;101235.33;1698594;83;21507;-68
2022/10/14 10:02:00;;;;;;;8.63;3.52;;;;;;;13.30;62.56;101234.61;1680620;84;21047;-70
2022/10/14 10:04:51;;;;;;;10.53;3.42;;;;;;;13.29;62.32;101230.68;1699810;84;20993;-69
2022/10/14 10:07:32;;;;;;;10.67;3.20;;;;;;;13.29;62.25;101236.19;1707670;83;21083;-69
2022/10/14 10:10:05;;;;;;;10.85;4.00;;;;;;;13.31;62.32;101229.96;1704408;83;21039;-68
2022/10/14 10:12:35;;;;;;;8.08;3.20;;;;;;;13.32;62.30;101231.66;1704075;84;21120;-66
2022/10/14 10:15:09;;;;;;;8.03;2.85;;;;;;;13.32;61.75;101233.05;1708231;83;21052;-65
2022/10/14 10:17:39;;;;;;;9.48;2.55;;;;;;;13.27;61.34;101231.40;1708077;83;21063;-68
2022/10/14 10:20:26;;;;;;;7.65;2.62;;;;;;;13.24;61.42;101228.52;1702481;84;21526;-67
2022/10/14 10:22:52;;;;;;;12.68;3.17;;;;;;;13.26;60.80;101221.44;1702614;84;21473;-68
2022/10/14 10:25:27;;;;;;;8.03;2.60;;;;;;;13.26;60.53;101227.80;1702113;83;21111;-70
2022/10/14 10:27:58;;;;;;;9.08;3.45;;;;;;;13.26;60.24;101223.66;1700420;84;21051;-68
2022/10/14 10:30:31;;;;;;;7.85;3.27;;;;;;;13.24;59.84;101219.41;1704787;84;21051;-68
2022/10/14 10:33:23;;;;;;;11.70;3.30;;;;;;;13.24;59.59;101222.16;1704105;84;21079;-66
2022/10/14 10:36:16;;;;;;;16.32;4.17;;;;;;;13.25;59.44;101216.98;1704958;84;21095;-67
2022/10/14 10:39:11;;;;;;;14.83;4.90;;;;;;;13.25;59.53;101217.83;1703630;84;21039;-68
2022/10/14 10:42:27;;;;;;;13.60;4.28;;;;;;;13.28;59.19;101216.06;1704532;83;21017;-67
2022/10/14 10:45:22;;;;;;;7.58;3.20;;;;;;;13.29;58.80;101216.92;1699570;84;21016;-65
2022/10/14 10:48:25;;;;;;;14.30;3.55;;;;;;;13.33;58.52;101212.72;1703449;84;21051;-67
2022/10/14 10:51:06;;;;;;;10.60;3.10;;;;;;;13.39;58.16;101213.31;1711902;83;21189;-66
2022/10/14 10:53:54;;;;;;;17.23;3.87;;;;;;;13.44;58.02;101204.47;1682631;84;21048;-67
2022/10/14 10:56:37;;;;;;;7.42;3.27;;;;;;;13.48;57.38;101207.16;1690078;84;21052;-66
2022/10/14 10:59:35;;;;;;;17.07;4.20;;;;;;;13.53;57.18;101207.41;1698970;84;21072;-67
2022/10/14 11:02:18;;;;;;;8.80;2.70;;;;;;;13.55;56.33;101200.66;1703821;84;21103;-68
2022/10/14 11:05:25;;;;;;;12.70;3.33;;;;;;;13.55;55.97;101203.41;1708525;84;21340;-70
2022/10/14 11:14:45;;;;;;;11.40;3.98;;;;;;;13.62;55.00;101196.59;1703987;83;21538;-68
2022/10/14 11:17:43;;;;;;;10.25;3.08;;;;;;;13.66;54.69;101195.70;1688532;84;21492;-67
2022/10/14 11:20:45;;;;;;;10.28;2.95;;;;;;;13.64;54.48;101195.34;1702690;84;21044;-68
2022/10/14 11:23:29;;;;;;;14.25;4.00;;;;;;;13.61;53.38;101187.48;1702848;84;21082;-69
2022/10/14 11:26:27;;;;;;;10.78;3.90;;;;;;;13.60;53.73;101184.92;1701802;84;21044;-67
2022/10/14 11:29:23;;;;;;;13.60;3.70;;;;;;;13.59;54.30;101195.08;1702737;83;21102;-67
2022/10/14 11:32:24;;;;;;;16.82;4.30;;;;;;;13.56;54.64;101184.99;1695923;84;21036;-71
2022/10/14 11:35:21;;;;;;;12.23;3.85;;;;;;;13.56;55.09;101187.22;1695555;84;21529;-68
2022/10/14 11:38:05;;;;;;;12.33;4.20;;;;;;;13.54;55.49;101183.81;1708541;84;21514;-70
2022/10/14 11:41:03;;;;;;;11.53;3.67;;;;;;;13.53;55.70;101177.98;1685228;84;21079;-68
2022/10/14 11:43:52;;;;;;;9.23;3.55;;;;;;;13.52;55.91;101180.41;1694086;84;21060;-69
2022/10/14 11:46:21;;;;;;;7.60;3.30;;;;;;;13.55;55.74;101185.52;1700180;83;21128;-67
2022/10/14 11:49:03;;;;;;;6.75;3.10;;;;;;;13.55;55.48;101183.28;1704473;84;21099;-68
2022/10/14 11:51:40;;;;;;;12.80;4.35;;;;;;;13.55;55.44;101177.78;1687690;84;21071;-68
2022/10/14 11:54:30;;;;;;;12.05;3.58;;;;;;;13.55;55.40;101180.01;1698726;84;21031;-69
2022/10/14 11:57:19;;;;;;;13.85;3.90;;;;;;;13.56;55.27;101181.72;1702647;84;21028;-68
2022/10/14 12:00:04;;;;;;;7.72;3.65;;;;;;;13.56;54.93;101182.23;1701312;84;21110;-68
2022/10/14 12:03:23;;;;;;;9.13;4.20;;;;;;;13.54;54.99;101182.44;1674686;84;21047;-67
2022/10/14 12:06:23;;;;;;;6.50;3.40;;;;;;;13.56;54.89;101175.35;1701870;84;21475;-70